Carlsbad Caverns Natl Park, New Mexico
Current Conditions -  °F | °C
As of 1:53 PM on Tuesday 21 Oct 2014 (Local Time) from KCNM Reporting Station
Few Clouds Few Clouds  
Wind Chill: 69°   Ceiling: Unl
Heat Index: 69°   Visibility: 10mi
Dew Point: 59°   Wind: 6mph
Humidity: 70%   Direction: 160°SSE
Pressure: 30.04"   Gusts: 16mph
Location:  32.13°N, 104.58°W
Report Text: KCNM 211953Z AUTO 16005G14KT 10SM FEW022 FEW026 21/15 A3004 RMK AO2 SLP133 T02060150
Loading
Personal Weather Stations






























Interactive Weather Map
Tropical Storm Tracking
New forecast layout! Learn more

10-Day Weather Forecast

Advertisements
Track Severe Weather on mobile